Time;durP1;ratioP1;P1;durP2;ratioP2;P2;SDS_P1;SDS_P2;PMS_P1;PMS_P2;Temp;Humidity;BMP_temperature;BMP_pressure;BME280_temperature;BME280_humidity;BME280_pressure;Samples;Min_cycle;Max_cycle;Signal;HPM_P1;HPM_P2
2021/06/05 00:00:46;;;;;;;3.45;1.27;;;18.90;99.90;;;;;;5091405;28;20179;-68
2021/06/05 00:03:14;;;;;;;0.60;0.40;;;18.80;99.90;;;;;;5091407;28;20198;-69
2021/06/05 00:05:56;;;;;;;1.13;0.82;;;18.60;99.90;;;;;;5109528;28;21000;-68
2021/06/05 00:08:24;;;;;;;1.67;0.95;;;18.40;99.90;;;;;;5109543;28;20175;-69
2021/06/05 00:10:55;;;;;;;1.35;1.35;;;18.30;99.90;;;;;;5109433;28;20252;-69
2021/06/05 00:13:33;;;;;;;0.40;0.40;;;18.20;99.90;;;;;;5091297;28;20171;-69
2021/06/05 00:16:02;;;;;;;1.17;0.80;;;18.10;99.90;;;;;;5109096;28;20159;-69
2021/06/05 00:18:29;;;;;;;0.70;0.60;;;18.10;99.90;;;;;;5109466;28;20156;-69
2021/06/05 00:20:56;;;;;;;0.70;0.70;;;18.20;99.90;;;;;;5109391;28;20171;-69
2021/06/05 00:23:23;;;;;;;0.35;0.35;;;18.00;99.90;;;;;;5090063;28;20206;-68
2021/06/05 00:25:51;;;;;;;1.25;1.17;;;17.90;99.90;;;;;;5090835;28;20198;-69
2021/06/05 00:28:17;;;;;;;0.85;0.85;;;17.80;99.90;;;;;;5109309;28;20711;-69
2021/06/05 00:30:43;;;;;;;0.50;0.50;;;17.60;99.90;;;;;;5109101;28;20214;-69
2021/06/05 00:33:10;;;;;;;1.38;1.08;;;17.50;99.90;;;;;;5090927;28;20196;-69
2021/06/05 00:35:37;;;;;;;0.50;0.50;;;17.50;99.90;;;;;;5109126;28;20682;-69
2021/06/05 00:38:05;;;;;;;0.40;0.40;;;17.40;99.90;;;;;;5109078;28;20166;-69
2021/06/05 00:40:36;;;;;;;0.70;0.70;;;17.40;99.90;;;;;;5109110;28;20497;-68
2021/06/05 00:43:03;;;;;;;0.30;0.15;;;17.40;99.90;;;;;;5109024;28;20249;-69
2021/06/05 00:45:34;;;;;;;0.82;0.82;;;17.50;99.90;;;;;;5108679;28;20215;-69
2021/06/05 00:48:01;;;;;;;0.55;0.55;;;17.50;99.90;;;;;;5108972;28;20160;-69
2021/06/05 00:50:28;;;;;;;0.47;0.47;;;17.50;99.90;;;;;;5108747;28;20217;-68
2021/06/05 00:52:56;;;;;;;1.30;1.20;;;17.50;99.90;;;;;;5108726;28;20235;-69
2021/06/05 00:55:25;;;;;;;0.28;0.28;;;17.40;99.90;;;;;;5108770;28;20190;-69
2021/06/05 00:57:51;;;;;;;1.38;1.33;;;17.40;99.90;;;;;;5108835;28;20167;-69
2021/06/05 01:00:23;;;;;;;0.85;0.85;;;17.50;99.90;;;;;;5108667;28;20164;-69
2021/06/05 01:02:49;;;;;;;1.27;1.08;;;17.40;99.90;;;;;;5108728;28;20164;-68
2021/06/05 01:05:17;;;;;;;1.38;1.27;;;17.40;99.90;;;;;;5108622;28;20260;-69
2021/06/05 01:07:45;;;;;;;4.57;1.40;;;17.40;99.90;;;;;;5108637;28;20164;-69
2021/06/05 01:10:26;;;;;;;1.65;1.20;;;17.30;99.90;;;;;;5108531;28;20737;-69
2021/06/05 01:13:07;;;;;;;0.65;0.65;;;17.30;99.90;;;;;;5108613;28;20144;-69
2021/06/05 01:15:53;;;;;;;1.98;1.08;;;17.10;99.90;;;;;;5108344;28;20198;-69
2021/06/05 01:18:33;;;;;;;1.05;0.55;;;17.00;99.90;;;;;;5090361;28;20167;-69
2021/06/05 01:21:20;;;;;;;1.17;1.15;;;16.90;99.90;;;;;;5108492;28;20167;-69
2021/06/05 01:24:17;;;;;;;0.82;0.82;;;16.70;99.90;;;;;;5088228;28;20210;-68
2021/06/05 01:26:57;;;;;;;2.75;0.90;;;16.60;99.90;;;;;;5128695;28;20177;-69
2021/06/05 01:29:31;;;;;;;0.63;0.63;;;16.50;99.90;;;;;;5112954;28;20193;-69
2021/06/05 01:32:03;;;;;;;0.75;0.75;;;16.50;99.90;;;;;;5133129;28;20166;-68
2021/06/05 01:34:31;;;;;;;0.73;0.73;;;16.50;99.90;;;;;;5132984;28;20186;-69
2021/06/05 01:36:58;;;;;;;0.63;0.63;;;16.60;99.90;;;;;;5133011;28;20184;-69
2021/06/05 01:39:29;;;;;;;1.30;0.65;;;16.60;99.90;;;;;;5132933;28;20212;-69
2021/06/05 01:41:57;;;;;;;0.80;0.80;;;16.50;99.90;;;;;;5132938;28;20211;-69
2021/06/05 01:44:25;;;;;;;0.32;0.28;;;16.50;99.90;;;;;;5132647;28;20186;-70
2021/06/05 01:46:52;;;;;;;0.75;0.75;;;16.40;99.90;;;;;;5132790;28;20154;-70
2021/06/05 01:49:19;;;;;;;0.50;0.50;;;16.30;99.90;;;;;;5132651;28;20255;-69
2021/06/05 01:51:51;;;;;;;2.83;1.38;;;16.20;99.90;;;;;;5132792;28;20174;-69
2021/06/05 01:54:24;;;;;;;1.27;1.20;;;16.10;99.90;;;;;;5132675;28;20187;-69
2021/06/05 01:57:06;;;;;;;1.65;1.40;;;16.10;99.90;;;;;;5132633;28;20155;-69
2021/06/05 01:59:32;;;;;;;1.23;1.10;;;16.00;99.90;;;;;;5132590;28;20167;-69
2021/06/05 02:01:58;;;;;;;1.50;1.40;;;15.90;99.90;;;;;;5132504;28;20159;-68
2021/06/05 02:04:25;;;;;;;0.90;0.90;;;15.90;99.90;;;;;;5132454;28;20564;-69
2021/06/05 02:06:52;;;;;;;0.40;0.40;;;15.90;99.90;;;;;;5132476;28;20161;-69
2021/06/05 02:09:21;;;;;;;0.60;0.60;;;15.90;99.90;;;;;;5114046;28;20667;-68
2021/06/05 02:11:52;;;;;;;0.38;0.38;;;15.80;99.90;;;;;;5132423;28;20154;-69
2021/06/05 02:14:37;;;;;;;0.90;0.90;;;15.80;99.90;;;;;;5126433;28;20191;-69
2021/06/05 02:17:07;;;;;;;0.95;0.85;;;15.90;99.90;;;;;;5111802;28;20186;-69
2021/06/05 02:19:37;;;;;;;2.22;1.30;;;15.90;99.90;;;;;;5111796;28;20167;-69
2021/06/05 02:22:06;;;;;;;0.45;0.45;;;15.90;99.90;;;;;;5093472;28;20175;-68
2021/06/05 02:24:48;;;;;;;0.40;0.40;;;16.00;99.90;;;;;;5111459;28;20233;-68
2021/06/05 02:27:19;;;;;;;0.40;0.40;;;16.10;99.90;;;;;;5111630;28;20224;-70
2021/06/05 02:29:46;;;;;;;1.02;0.63;;;16.10;99.90;;;;;;5111511;28;20187;-68
2021/06/05 02:32:18;;;;;;;0.93;0.77;;;16.20;99.90;;;;;;5111615;28;20166;-69
2021/06/05 02:34:46;;;;;;;1.63;1.52;;;16.20;99.90;;;;;;5111312;28;20190;-68
2021/06/05 02:37:17;;;;;;;1.23;0.68;;;16.20;99.90;;;;;;5111325;28;20152;-69
2021/06/05 02:39:43;;;;;;;0.82;0.82;;;16.30;99.90;;;;;;5111077;28;20167;-69
2021/06/05 02:42:20;;;;;;;1.83;1.73;;;16.30;99.90;;;;;;5111322;28;20160;-69
2021/06/05 02:44:49;;;;;;;0.57;0.57;;;16.40;99.90;;;;;;5110801;28;20226;-69
2021/06/05 02:47:17;;;;;;;1.20;1.10;;;16.50;99.90;;;;;;5111178;28;20159;-69
2021/06/05 02:49:44;;;;;;;3.13;1.70;;;16.40;99.90;;;;;;5111053;28;20182;-68
2021/06/05 02:52:28;;;;;;;0.90;0.90;;;16.40;99.90;;;;;;5111136;28;20151;-69
2021/06/05 02:55:03;;;;;;;0.95;0.85;;;16.40;99.90;;;;;;5110948;28;20187;-68
2021/06/05 02:57:30;;;;;;;1.30;0.95;;;16.40;99.90;;;;;;5111036;28;20159;-68
2021/06/05 02:59:57;;;;;;;1.42;1.33;;;16.40;99.90;;;;;;5110901;28;20178;-70
2021/06/05 03:02:24;;;;;;;1.58;1.48;;;16.50;99.90;;;;;;5110771;28;20166;-69
2021/06/05 03:04:51;;;;;;;0.85;0.85;;;16.50;99.90;;;;;;5110759;28;20195;-69
2021/06/05 03:07:17;;;;;;;1.05;0.98;;;16.60;99.90;;;;;;5110795;28;20179;-67
2021/06/05 03:09:44;;;;;;;4.15;1.17;;;16.70;99.90;;;;;;5110690;28;20203;-68
2021/06/05 03:12:14;;;;;;;1.23;1.23;;;16.70;99.90;;;;;;5110787;28;20156;-69
2021/06/05 03:14:40;;;;;;;1.42;0.70;;;16.70;99.90;;;;;;5110402;28;20191;-69
2021/06/05 03:17:10;;;;;;;0.75;0.75;;;16.80;99.90;;;;;;5110396;28;20163;-67
2021/06/05 03:19:38;;;;;;;2.05;1.90;;;16.80;99.90;;;;;;5110419;28;20152;-68
2021/06/05 03:22:05;;;;;;;1.83;0.88;;;16.80;99.90;;;;;;5110539;28;20161;-67
2021/06/05 03:24:32;;;;;;;1.60;1.45;;;16.80;99.90;;;;;;5110291;28;20195;-68
2021/06/05 03:27:00;;;;;;;1.70;1.60;;;17.00;99.90;;;;;;5110489;28;20160;-68
2021/06/05 03:29:27;;;;;;;2.03;1.17;;;17.10;99.90;;;;;;5110339;28;20183;-67
2021/06/05 03:31:54;;;;;;;1.42;1.33;;;17.10;99.90;;;;;;5092111;28;20174;-67
2021/06/05 03:34:21;;;;;;;0.82;0.82;;;17.20;99.90;;;;;;5110256;28;20191;-69
2021/06/05 03:36:47;;;;;;;0.60;0.60;;;17.20;99.90;;;;;;5092114;28;20168;-69
2021/06/05 03:39:13;;;;;;;1.33;1.17;;;17.30;99.90;;;;;;5091826;28;20182;-69
2021/06/05 03:41:40;;;;;;;0.52;0.52;;;17.30;99.90;;;;;;5110227;28;20167;-69
2021/06/05 03:44:07;;;;;;;2.25;1.60;;;17.30;99.90;;;;;;5091982;28;20258;-69
2021/06/05 03:46:33;;;;;;;0.75;0.75;;;17.30;99.90;;;;;;5091634;28;20252;-69
2021/06/05 03:48:59;;;;;;;1.17;1.17;;;17.30;99.90;;;;;;5109926;28;20697;-69
2021/06/05 03:51:26;;;;;;;0.82;0.80;;;17.30;99.90;;;;;;5109417;28;20159;-69
2021/06/05 03:53:52;;;;;;;2.53;1.02;;;17.20;99.90;;;;;;5109870;28;20156;-69
2021/06/05 03:56:18;;;;;;;1.65;1.55;;;17.10;99.90;;;;;;5109784;28;20169;-69
2021/06/05 03:58:45;;;;;;;1.75;1.65;;;17.20;99.90;;;;;;5091609;28;20163;-69
2021/06/05 04:01:19;;;;;;;1.55;1.38;;;17.10;99.90;;;;;;5109760;28;20616;-69
2021/06/05 04:03:46;;;;;;;0.65;0.65;;;17.10;99.90;;;;;;5109683;28;20170;-69
2021/06/05 04:06:13;;;;;;;1.48;1.38;;;17.10;99.90;;;;;;5091475;28;20186;-69
2021/06/05 04:08:39;;;;;;;0.73;0.73;;;17.10;99.90;;;;;;5109651;28;20224;-68
2021/06/05 04:11:07;;;;;;;2.13;2.00;;;17.10;99.90;;;;;;5109522;28;20183;-68
2021/06/05 04:13:33;;;;;;;0.45;0.45;;;17.20;99.90;;;;;;5091310;28;20513;-69
2021/06/05 04:15:59;;;;;;;2.47;1.10;;;17.20;99.90;;;;;;5091054;28;20223;-69
2021/06/05 04:18:32;;;;;;;2.08;1.98;;;17.20;99.90;;;;;;5109227;28;20160;-69
2021/06/05 04:20:59;;;;;;;3.67;1.13;;;17.30;99.90;;;;;;5109365;28;20190;-69
2021/06/05 04:23:26;;;;;;;4.03;1.75;;;17.40;99.90;;;;;;5109426;28;20545;-69
2021/06/05 04:25:53;;;;;;;4.43;1.75;;;17.40;99.90;;;;;;5109053;28;20199;-69
2021/06/05 04:28:21;;;;;;;0.82;0.82;;;17.30;99.90;;;;;;5091176;28;20666;-69
2021/06/05 04:30:47;;;;;;;0.90;0.90;;;17.40;99.90;;;;;;5109262;28;20602;-69
2021/06/05 04:33:15;;;;;;;1.48;0.98;;;17.60;99.90;;;;;;5109245;28;20163;-69
2021/06/05 04:35:41;;;;;;;1.85;1.38;;;17.70;99.90;;;;;;5109119;28;20192;-69
2021/06/05 04:38:08;;;;;;;1.15;1.13;;;17.70;99.90;;;;;;5108903;28;20234;-69
2021/06/05 04:40:35;;;;;;;1.20;1.02;;;17.80;99.90;;;;;;5108969;28;20159;-69
2021/06/05 04:43:01;;;;;;;1.60;1.58;;;17.90;99.90;;;;;;5109048;28;20167;-69
2021/06/05 04:45:27;;;;;;;0.60;0.60;;;18.00;99.90;;;;;;5108699;28;20261;-69
2021/06/05 04:47:54;;;;;;;1.73;1.58;;;18.00;99.90;;;;;;5108909;28;20177;-69
2021/06/05 04:50:25;;;;;;;4.50;2.78;;;18.10;99.90;;;;;;5108744;28;20183;-69
2021/06/05 04:52:52;;;;;;;0.65;0.65;;;18.20;99.90;;;;;;5108949;28;20163;-69
2021/06/05 04:55:19;;;;;;;2.03;1.92;;;18.30;99.90;;;;;;5090635;28;20191;-69
2021/06/05 04:57:45;;;;;;;2.08;1.60;;;18.30;99.90;;;;;;5108688;28;20160;-69
2021/06/05 05:00:16;;;;;;;1.65;1.50;;;18.30;99.90;;;;;;5108848;28;20163;-69
2021/06/05 05:02:42;;;;;;;1.95;1.70;;;18.30;99.90;;;;;;5089727;28;20171;-67
2021/06/05 05:05:10;;;;;;;2.25;1.42;;;18.30;99.90;;;;;;5090018;28;20228;-69
2021/06/05 05:07:35;;;;;;;1.27;1.20;;;18.30;99.90;;;;;;5108761;28;20164;-69
2021/06/05 05:10:04;;;;;;;1.00;1.00;;;18.30;99.90;;;;;;5108591;28;20191;-69
2021/06/05 05:12:30;;;;;;;2.17;1.33;;;18.30;99.90;;;;;;5108528;28;20155;-68
2021/06/05 05:14:56;;;;;;;1.92;1.63;;;18.40;99.90;;;;;;5108484;28;20259;-69
2021/06/05 05:17:23;;;;;;;1.05;1.05;;;18.40;99.90;;;;;;5108572;28;20155;-69
2021/06/05 05:19:49;;;;;;;1.48;0.82;;;18.60;99.90;;;;;;5108621;28;20172;-68
2021/06/05 05:22:15;;;;;;;0.75;0.75;;;18.70;99.90;;;;;;5108405;28;20170;-69
2021/06/05 05:24:41;;;;;;;0.77;0.77;;;18.80;99.90;;;;;;5108379;28;20203;-69
2021/06/05 05:27:08;;;;;;;0.90;0.90;;;19.00;99.90;;;;;;5102477;28;20193;-67
2021/06/05 05:29:34;;;;;;;1.30;1.20;;;19.10;99.90;;;;;;5089929;28;20211;-68
2021/06/05 05:31:59;;;;;;;1.55;1.33;;;19.20;99.90;;;;;;5108272;28;20697;-69
2021/06/05 05:34:25;;;;;;;0.77;0.75;;;19.20;99.90;;;;;;5090187;28;20214;-69
2021/06/05 05:36:51;;;;;;;1.85;1.73;;;19.50;99.90;;;;;;5089374;28;20199;-68
2021/06/05 05:39:19;;;;;;;1.42;1.13;;;19.60;99.90;;;;;;5108325;28;20175;-68
2021/06/05 05:41:48;;;;;;;1.17;1.08;;;19.60;99.90;;;;;;5108268;28;20681;-68
2021/06/05 05:44:16;;;;;;;1.05;1.05;;;19.60;99.90;;;;;;5108027;28;20660;-69
2021/06/05 05:46:42;;;;;;;0.63;0.60;;;19.90;99.90;;;;;;5107282;28;20207;-68
2021/06/05 05:49:08;;;;;;;1.05;0.93;;;19.90;99.90;;;;;;5107915;28;20179;-68
2021/06/05 05:51:34;;;;;;;1.27;1.08;;;20.00;99.90;;;;;;5090034;28;20163;-68
2021/06/05 05:54:00;;;;;;;5.68;1.20;;;20.00;99.90;;;;;;5108147;28;20305;-68
2021/06/05 05:56:28;;;;;;;2.15;1.17;;;19.90;99.90;;;;;;5089423;28;20163;-68
2021/06/05 05:58:56;;;;;;;2.15;1.48;;;19.90;99.90;;;;;;5108102;28;20532;-69
2021/06/05 06:01:24;;;;;;;2.90;1.15;;;20.00;99.90;;;;;;5102476;28;20171;-69
2021/06/05 06:03:52;;;;;;;0.57;0.32;;;20.40;99.90;;;;;;5098641;28;20172;-69
2021/06/05 06:06:19;;;;;;;0.73;0.73;;;20.70;99.90;;;;;;5097406;28;20179;-69
2021/06/05 06:08:47;;;;;;;0.63;0.63;;;20.90;99.90;;;;;;5080770;28;20187;-69
2021/06/05 06:11:14;;;;;;;0.38;0.38;;;20.70;99.90;;;;;;5098391;28;20182;-69
2021/06/05 06:13:40;;;;;;;1.90;1.73;;;20.70;99.90;;;;;;5097484;28;20167;-69
2021/06/05 06:16:08;;;;;;;1.17;0.77;;;20.90;99.90;;;;;;5111281;28;20195;-68
2021/06/05 06:18:36;;;;;;;1.45;1.45;;;21.20;99.90;;;;;;5110953;28;20191;-69
2021/06/05 06:21:04;;;;;;;0.85;0.85;;;21.30;99.90;;;;;;5093786;28;20616;-68
2021/06/05 06:23:32;;;;;;;1.02;0.93;;;21.50;99.90;;;;;;5108595;28;20175;-68
2021/06/05 06:26:01;;;;;;;0.93;0.93;;;21.60;99.90;;;;;;5107713;28;20175;-68
2021/06/05 06:28:32;;;;;;;0.80;0.80;;;21.50;99.90;;;;;;5110857;28;20187;-69
2021/06/05 06:31:00;;;;;;;2.00;1.50;;;21.60;99.90;;;;;;5112038;28;20225;-69
2021/06/05 06:33:27;;;;;;;2.67;1.02;;;21.70;99.90;;;;;;5112308;28;20166;-68
2021/06/05 06:35:54;;;;;;;1.17;0.90;;;21.90;99.90;;;;;;5111921;28;20163;-69
2021/06/05 06:38:26;;;;;;;1.13;0.95;;;21.80;99.90;;;;;;5111992;28;20198;-69
2021/06/05 06:40:53;;;;;;;1.10;0.82;;;22.00;99.90;;;;;;5111717;28;20239;-69
2021/06/05 06:43:22;;;;;;;0.77;0.77;;;22.20;99.90;;;;;;5087560;28;20282;-68
2021/06/05 06:45:49;;;;;;;1.30;1.20;;;22.50;99.90;;;;;;5097434;28;20236;-68
2021/06/05 06:48:16;;;;;;;1.23;1.02;;;22.50;99.90;;;;;;5093397;28;20215;-68
2021/06/05 06:50:42;;;;;;;1.13;1.10;;;22.40;99.90;;;;;;5093120;28;20235;-66
2021/06/05 06:53:09;;;;;;;1.33;1.27;;;22.20;99.90;;;;;;5111920;28;20527;-67
2021/06/05 06:55:34;;;;;;;0.95;0.85;;;22.50;99.90;;;;;;5111438;28;20159;-67
2021/06/05 06:58:00;;;;;;;4.72;1.25;;;23.90;99.90;;;;;;5111099;28;20194;-67
2021/06/05 07:00:34;;;;;;;3.17;2.00;;;24.40;99.90;;;;;;5098865;28;20651;-67
2021/06/05 07:03:00;;;;;;;1.27;1.08;;;26.20;99.90;;;;;;5099838;28;20192;-67
2021/06/05 07:05:26;;;;;;;0.82;0.82;;;26.80;99.90;;;;;;5083041;28;20208;-66
2021/06/05 07:08:05;;;;;;;14.07;1.77;;;27.50;99.90;;;;;;5099210;28;20163;-67
2021/06/05 07:10:31;;;;;;;0.82;0.82;;;27.60;99.90;;;;;;5093539;28;20277;-67
2021/06/05 07:12:57;;;;;;;0.98;0.98;;;26.30;99.90;;;;;;5090319;28;20163;-68
2021/06/05 07:15:23;;;;;;;1.45;1.35;;;25.40;99.90;;;;;;5090886;28;20197;-67
2021/06/05 07:17:49;;;;;;;4.28;2.22;;;25.70;99.90;;;;;;5081599;28;20171;-67
2021/06/05 07:20:15;;;;;;;3.17;1.38;;;26.60;99.90;;;;;;5086862;28;20210;-67
2021/06/05 07:22:41;;;;;;;1.35;1.17;;;26.20;99.90;;;;;;5090521;28;20229;-67
2021/06/05 07:25:08;;;;;;;2.58;1.58;;;26.30;99.90;;;;;;5090660;28;20247;-67
2021/06/05 07:27:34;;;;;;;2.97;1.40;;;26.50;99.90;;;;;;5089581;28;20151;-67
2021/06/05 07:30:00;;;;;;;1.52;1.00;;;26.80;99.90;;;;;;5090752;28;20206;-67
2021/06/05 07:32:26;;;;;;;1.48;1.30;;;26.40;99.90;;;;;;5090652;28;20194;-67
2021/06/05 07:34:52;;;;;;;0.80;0.80;;;26.00;99.90;;;;;;5090490;28;20152;-67
2021/06/05 07:37:20;;;;;;;0.47;0.40;;;26.10;99.90;;;;;;5090732;28;20171;-67
2021/06/05 07:39:47;;;;;;;1.00;0.98;;;26.20;99.90;;;;;;5090778;28;20190;-68
2021/06/05 07:42:13;;;;;;;2.10;1.95;;;26.40;99.90;;;;;;5091383;28;20170;-67
2021/06/05 07:44:39;;;;;;;3.58;1.58;;;25.70;99.90;;;;;;5110879;28;20181;-67
2021/06/05 07:47:05;;;;;;;1.75;1.50;;;26.10;99.90;;;;;;5110562;28;20290;-66
2021/06/05 07:49:37;;;;;;;1.92;1.63;;;26.50;99.90;;;;;;5092420;28;20221;-68
2021/06/05 07:52:08;;;;;;;2.63;1.30;;;27.20;99.90;;;;;;5110379;28;20177;-67
2021/06/05 07:54:33;;;;;;;1.17;1.13;;;28.00;99.90;;;;;;5110569;28;20155;-67
2021/06/05 07:56:59;;;;;;;1.67;1.58;;;27.80;99.90;;;;;;5092370;28;20224;-67
2021/06/05 07:59:27;;;;;;;1.33;1.17;;;27.60;99.90;;;;;;5091831;28;20215;-67
2021/06/05 08:01:54;;;;;;;1.83;1.73;;;28.20;99.90;;;;;;5109798;28;20218;-67
2021/06/05 08:04:21;;;;;;;1.58;1.48;;;28.10;99.90;;;;;;5093738;28;20182;-67
2021/06/05 08:06:48;;;;;;;1.27;0.93;;;28.40;99.90;;;;;;5090201;28;20676;-67
2021/06/05 08:09:15;;;;;;;3.05;1.70;;;28.40;99.90;;;;;;5089838;28;20198;-68
2021/06/05 08:11:41;;;;;;;1.50;1.40;;;28.60;99.90;;;;;;5088585;28;20160;-67
2021/06/05 08:14:08;;;;;;;1.65;1.55;;;28.50;99.90;;;;;;5089734;28;20213;-67
2021/06/05 08:16:37;;;;;;;1.33;1.23;;;27.70;99.90;;;;;;5074349;28;20174;-67
2021/06/05 08:19:09;;;;;;;1.48;1.35;;;28.40;99.90;;;;;;5110167;28;20195;-67
2021/06/05 08:21:36;;;;;;;1.02;0.95;;;29.10;99.90;;;;;;5110110;28;20203;-67
2021/06/05 08:24:02;;;;;;;3.35;2.58;;;29.40;99.90;;;;;;5110096;28;20177;-67
2021/06/05 08:26:28;;;;;;;1.70;1.60;;;28.90;99.90;;;;;;5091571;28;20187;-67
2021/06/05 08:28:54;;;;;;;1.23;1.20;;;28.20;99.90;;;;;;5091636;28;20210;-67
2021/06/05 08:31:22;;;;;;;3.65;1.95;;;29.20;99.90;;;;;;5091285;28;20190;-67
2021/06/05 08:33:48;;;;;;;1.75;1.33;;;30.50;99.90;;;;;;5109939;28;20158;-67
2021/06/05 08:36:16;;;;;;;1.50;1.40;;;31.40;99.90;;;;;;5109916;28;20151;-67
2021/06/05 08:38:44;;;;;;;1.92;1.27;;;32.00;99.90;;;;;;5109457;28;20187;-67
2021/06/05 08:41:28;;;;;;;1.42;1.33;;;32.30;99.90;;;;;;5091545;28;20266;-67
2021/06/05 08:43:57;;;;;;;1.30;1.20;;;31.50;99.90;;;;;;5109632;28;20213;-66
2021/06/05 08:46:28;;;;;;;1.23;1.10;;;31.10;99.90;;;;;;5109568;28;20253;-67
2021/06/05 08:48:57;;;;;;;1.55;1.45;;;30.90;99.90;;;;;;5109550;28;20213;-67
2021/06/05 08:51:47;;;;;;;1.75;1.65;;;31.00;99.90;;;;;;5109399;28;20183;-66
2021/06/05 08:54:35;;;;;;;1.40;0.98;;;30.90;99.90;;;;;;5091284;28;20170;-67
2021/06/05 08:57:18;;;;;;;2.30;1.30;;;31.80;99.90;;;;;;5109573;28;20163;-67
2021/06/05 08:59:46;;;;;;;2.42;1.80;;;31.60;99.90;;;;;;5109432;28;20194;-67
2021/06/05 09:02:14;;;;;;;2.85;2.53;;;31.70;99.90;;;;;;5109557;28;20161;-66
2021/06/05 09:04:41;;;;;;;1.25;1.02;;;31.90;99.90;;;;;;5091271;28;20169;-67
2021/06/05 09:07:11;;;;;;;1.80;1.67;;;32.00;99.90;;;;;;5109485;28;20151;-67
2021/06/05 09:09:42;;;;;;;1.40;1.30;;;32.30;99.90;;;;;;5108535;28;20206;-67
2021/06/05 09:12:09;;;;;;;0.75;0.75;;;32.60;99.90;;;;;;5109262;28;20166;-67
2021/06/05 09:14:35;;;;;;;3.55;2.13;;;33.40;99.90;;;;;;5109132;28;20568;-67
2021/06/05 09:17:18;;;;;;;1.50;1.40;;;33.70;99.90;;;;;;5109314;28;20178;-67
2021/06/05 09:20:21;;;;;;;1.73;1.48;;;32.00;99.90;;;;;;5088590;28;20862;-67
2021/06/05 09:22:47;;;;;;;2.70;1.75;;;31.60;99.90;;;;;;5107776;28;20147;-67
2021/06/05 09:25:37;;;;;;;1.20;1.10;;;31.00;99.90;;;;;;5108435;28;20165;-67
2021/06/05 09:28:17;;;;;;;0.95;0.80;;;31.00;99.90;;;;;;5108499;28;20155;-67
2021/06/05 09:30:47;;;;;;;4.10;1.52;;;31.30;99.90;;;;;;5108493;28;20198;-67
2021/06/05 09:33:27;;;;;;;11.18;1.33;;;31.10;99.90;;;;;;5108427;28;20166;-67
2021/06/05 09:36:11;;;;;;;2.97;1.60;;;32.70;99.90;;;;;;5108664;28;20151;-68
2021/06/05 09:38:38;;;;;;;6.70;1.63;;;34.20;99.90;;;;;;5109253;28;20276;-67
2021/06/05 09:41:22;;;;;;;2.03;1.88;;;35.20;99.90;;;;;;5109465;28;20190;-67
2021/06/05 09:43:50;;;;;;;1.67;1.17;;;34.10;99.90;;;;;;5097467;28;20266;-68
2021/06/05 09:46:31;;;;;;;1.30;1.02;;;32.90;99.90;;;;;;5089096;28;20245;-68
2021/06/05 09:49:15;;;;;;;3.03;1.58;;;33.20;99.90;;;;;;5109000;28;20155;-67
2021/06/05 09:51:44;;;;;;;3.22;1.25;;;32.50;99.90;;;;;;5112885;28;20694;-68
2021/06/05 09:54:28;;;;;;;1.42;1.33;;;31.80;99.90;;;;;;5113067;28;20167;-67
2021/06/05 09:57:03;;;;;;;2.00;1.38;;;32.10;99.90;;;;;;5113090;28;20292;-68
2021/06/05 09:59:33;;;;;;;4.07;1.10;;;32.00;99.90;;;;;;5112873;28;20166;-68
2021/06/05 10:02:06;;;;;;;1.52;1.42;;;32.80;99.90;;;;;;5112668;28;20237;-67
2021/06/05 10:04:35;;;;;;;1.67;1.58;;;33.50;99.90;;;;;;5112834;28;20166;-67
2021/06/05 10:07:02;;;;;;;1.30;1.10;;;33.90;99.90;;;;;;5094574;28;20651;-68
2021/06/05 10:09:37;;;;;;;0.75;0.75;;;34.20;99.90;;;;;;5112662;28;20166;-68
2021/06/05 10:12:11;;;;;;;1.77;1.67;;;35.20;99.90;;;;;;5112638;28;20190;-68
2021/06/05 10:14:56;;;;;;;1.50;1.13;;;35.60;99.90;;;;;;5112688;28;20161;-68
2021/06/05 10:17:32;;;;;;;1.55;1.33;;;34.60;99.90;;;;;;5112382;28;20185;-68
2021/06/05 10:20:28;;;;;;;1.38;1.25;;;35.30;99.90;;;;;;5112691;28;20189;-68
2021/06/05 10:22:57;;;;;;;1.48;1.17;;;34.90;99.90;;;;;;5040718;28;20223;-67
2021/06/05 10:25:35;;;;;;;2.13;1.70;;;34.30;99.90;;;;;;5112576;28;20227;-67
2021/06/05 10:28:15;;;;;;;0.77;0.77;;;33.40;99.90;;;;;;5112338;28;20158;-67
2021/06/05 10:30:52;;;;;;;1.35;1.25;;;33.70;99.90;;;;;;5112205;28;20210;-68
2021/06/05 10:33:47;;;;;;;1.10;1.00;;;34.70;99.90;;;;;;5094055;28;20180;-67
2021/06/05 10:36:28;;;;;;;0.90;0.90;;;34.90;99.90;;;;;;5112421;28;20232;-68
2021/06/05 10:39:05;;;;;;;1.35;1.25;;;34.90;99.90;;;;;;5112301;28;20159;-68
2021/06/05 10:41:36;;;;;;;2.00;1.40;;;34.90;99.90;;;;;;5093833;28;20269;-67
2021/06/05 10:44:05;;;;;;;0.90;0.77;;;35.30;99.10;;;;;;5112050;28;20166;-67
2021/06/05 10:46:43;;;;;;;1.23;1.02;;;34.20;99.90;;;;;;5111881;28;20222;-67
2021/06/05 10:49:33;;;;;;;1.20;1.10;;;33.70;99.90;;;;;;5112118;28;20155;-67
2021/06/05 10:52:31;;;;;;;0.40;0.40;;;32.70;99.90;;;;;;5111652;28;20195;-67
2021/06/05 10:55:24;;;;;;;1.08;0.98;;;33.20;99.90;;;;;;5107867;28;20182;-67
2021/06/05 10:58:17;;;;;;;1.30;1.20;;;34.00;99.90;;;;;;5107428;28;20666;-68
2021/06/05 11:00:47;;;;;;;0.98;0.95;;;35.20;99.60;;;;;;5111770;28;20195;-67
2021/06/05 11:03:25;;;;;;;1.02;1.02;;;35.10;99.90;;;;;;5111828;28;20177;-67
2021/06/05 11:06:21;;;;;;;1.23;0.98;;;34.30;99.50;;;;;;5111640;28;20253;-68
2021/06/05 11:08:56;;;;;;;1.90;1.10;;;33.20;99.90;;;;;;5093252;28;20159;-67
2021/06/05 11:11:45;;;;;;;16.30;1.10;;;33.50;99.90;;;;;;5111544;28;20631;-67
2021/06/05 11:14:20;;;;;;;1.23;1.13;;;32.30;99.90;;;;;;5111525;28;20246;-67
2021/06/05 11:16:58;;;;;;;1.42;1.02;;;31.70;99.90;;;;;;5111136;28;20169;-67
2021/06/05 11:19:34;;;;;;;3.00;1.88;;;32.00;99.90;;;;;;5093091;28;20249;-68
2021/06/05 11:22:12;;;;;;;0.88;0.82;;;32.00;99.90;;;;;;5111370;28;20186;-67
2021/06/05 11:24:40;;;;;;;1.80;1.27;;;30.90;99.90;;;;;;5111330;28;20174;-67
2021/06/05 11:27:29;;;;;;;1.23;1.13;;;31.50;99.90;;;;;;5111412;28;20151;-67
2021/06/05 11:29:57;;;;;;;1.33;1.08;;;32.30;99.90;;;;;;5111056;28;20251;-68
2021/06/05 11:32:50;;;;;;;2.10;1.52;;;32.50;99.90;;;;;;5111163;28;20250;-68
2021/06/05 11:35:44;;;;;;;1.25;1.05;;;32.00;99.90;;;;;;5111047;28;20198;-68
2021/06/05 11:38:19;;;;;;;1.50;0.65;;;33.20;99.90;;;;;;5092949;28;20171;-68
2021/06/05 11:40:54;;;;;;;1.85;1.48;;;33.20;99.90;;;;;;5110883;28;20186;-67
2021/06/05 11:43:29;;;;;;;1.02;1.02;;;34.90;99.90;;;;;;5092689;28;20228;-67
2021/06/05 11:45:58;;;;;;;0.88;0.68;;;34.50;99.30;;;;;;5110826;28;20214;-67
2021/06/05 11:48:45;;;;;;;1.20;1.10;;;33.60;99.60;;;;;;5110937;28;20174;-67
2021/06/05 11:51:20;;;;;;;0.90;0.90;;;33.50;99.90;;;;;;5092279;28;20221;-67
2021/06/05 11:53:55;;;;;;;7.43;1.00;;;33.20;99.90;;;;;;5090508;28;20159;-68
2021/06/05 11:56:54;;;;;;;1.45;1.35;;;32.90;99.90;;;;;;5090381;28;20163;-67
2021/06/05 11:59:39;;;;;;;2.30;1.08;;;32.50;99.90;;;;;;5089825;28;20188;-67
2021/06/05 12:02:29;;;;;;;0.95;0.90;;;30.40;99.90;;;;;;5090299;28;20184;-67
2021/06/05 12:05:16;;;;;;;1.10;1.10;;;29.40;99.90;;;;;;5090318;28;20194;-68
2021/06/05 12:07:43;;;;;;;2.33;1.27;;;29.10;99.90;;;;;;5090102;28;20175;-67
2021/06/05 12:10:30;;;;;;;1.60;1.50;;;28.80;99.90;;;;;;5089986;28;20211;-67
2021/06/05 12:12:57;;;;;;;1.75;1.50;;;29.40;99.90;;;;;;5071576;28;20175;-67
2021/06/05 12:15:30;;;;;;;1.10;1.00;;;29.90;99.90;;;;;;5072146;28;20194;-67
2021/06/05 12:17:59;;;;;;;1.27;1.17;;;29.30;99.90;;;;;;5104188;28;20163;-67
2021/06/05 12:20:48;;;;;;;1.80;1.48;;;29.40;99.90;;;;;;5110145;28;20178;-67
2021/06/05 12:23:28;;;;;;;0.52;0.52;;;28.90;99.90;;;;;;5109944;28;20158;-67
2021/06/05 12:26:01;;;;;;;0.90;0.90;;;28.90;99.90;;;;;;5110160;28;20566;-68
2021/06/05 12:28:30;;;;;;;0.80;0.77;;;28.50;99.90;;;;;;5091842;28;20196;-67
2021/06/05 12:31:13;;;;;;;2.28;1.15;;;28.50;99.90;;;;;;5110074;28;20236;-67
2021/06/05 12:33:40;;;;;;;0.40;0.40;;;28.70;99.90;;;;;;5109507;28;20162;-66
2021/06/05 12:36:40;;;;;;;0.70;0.70;;;28.40;99.90;;;;;;5108796;28;20504;-66
2021/06/05 12:39:26;;;;;;;0.85;0.85;;;27.90;99.90;;;;;;5046423;28;20188;-66
2021/06/05 12:41:54;;;;;;;0.32;0.25;;;28.00;99.90;;;;;;5046476;28;20227;-66
2021/06/05 12:44:32;;;;;;;0.82;0.82;;;28.20;99.90;;;;;;5046496;28;20168;-66
2021/06/05 12:47:04;;;;;;;0.60;0.60;;;28.30;99.90;;;;;;5046423;28;20599;-66
2021/06/05 12:49:30;;;;;;;1.17;1.15;;;28.40;99.90;;;;;;5047054;28;20188;-66
2021/06/05 12:52:01;;;;;;;1.55;1.05;;;28.30;99.90;;;;;;5040892;28;20775;-66
2021/06/05 12:54:36;;;;;;;0.60;0.50;;;28.40;99.90;;;;;;5027188;28;20691;-65
2021/06/05 12:57:32;;;;;;;1.10;0.63;;;28.50;99.90;;;;;;5027320;28;20161;-66
2021/06/05 12:59:58;;;;;;;2.05;1.48;;;28.40;99.90;;;;;;5033045;28;20415;-65
2021/06/05 13:02:34;;;;;;;0.43;0.43;;;28.20;99.90;;;;;;5036164;28;20220;-65
2021/06/05 13:05:14;;;;;;;1.15;0.93;;;28.10;99.90;;;;;;5035401;28;20406;-65
2021/06/05 13:07:42;;;;;;;2.55;2.30;;;28.10;99.90;;;;;;5036430;28;20598;-65